sensor_id;sensor_type;location;lat;lon;timestamp;P1;durP1;ratioP1;P2;durP2;ratioP2
82628;SDS011;72298;49.640;20.652;2023-11-18T00:01:24;7.20;;;3.85;;
82628;SDS011;72298;49.640;20.652;2023-11-18T00:03:49;6.55;;;3.40;;
82628;SDS011;72298;49.640;20.652;2023-11-18T00:06:15;6.72;;;3.65;;
82628;SDS011;72298;49.640;20.652;2023-11-18T00:08:41;5.28;;;3.08;;
82628;SDS011;72298;49.640;20.652;2023-11-18T00:11:08;7.00;;;3.70;;
82628;SDS011;72298;49.640;20.652;2023-11-18T00:13:36;7.97;;;4.05;;
82628;SDS011;72298;49.640;20.652;2023-11-18T00:16:04;4.40;;;3.00;;
82628;SDS011;72298;49.640;20.652;2023-11-18T00:18:31;6.78;;;3.53;;
82628;SDS011;72298;49.640;20.652;2023-11-18T00:20:57;4.05;;;2.60;;
82628;SDS011;72298;49.640;20.652;2023-11-18T00:23:23;4.88;;;3.00;;
82628;SDS011;72298;49.640;20.652;2023-11-18T00:25:49;4.55;;;2.90;;
82628;SDS011;72298;49.640;20.652;2023-11-18T00:28:15;7.32;;;3.55;;
82628;SDS011;72298;49.640;20.652;2023-11-18T00:30:40;6.20;;;3.22;;
82628;SDS011;72298;49.640;20.652;2023-11-18T00:33:06;5.03;;;2.58;;
82628;SDS011;72298;49.640;20.652;2023-11-18T00:35:32;6.10;;;3.22;;
82628;SDS011;72298;49.640;20.652;2023-11-18T00:37:58;9.88;;;4.28;;
82628;SDS011;72298;49.640;20.652;2023-11-18T00:40:25;5.63;;;3.72;;
82628;SDS011;72298;49.640;20.652;2023-11-18T00:42:50;7.28;;;3.83;;
82628;SDS011;72298;49.640;20.652;2023-11-18T00:45:16;7.28;;;4.25;;
82628;SDS011;72298;49.640;20.652;2023-11-18T00:47:43;6.32;;;4.03;;
82628;SDS011;72298;49.640;20.652;2023-11-18T00:50:09;7.22;;;3.78;;
82628;SDS011;72298;49.640;20.652;2023-11-18T00:52:34;7.72;;;4.60;;
82628;SDS011;72298;49.640;20.652;2023-11-18T00:55:00;7.72;;;3.80;;
82628;SDS011;72298;49.640;20.652;2023-11-18T00:57:26;8.70;;;4.70;;
82628;SDS011;72298;49.640;20.652;2023-11-18T00:59:52;7.65;;;4.53;;
82628;SDS011;72298;49.640;20.652;2023-11-18T01:02:17;6.55;;;3.33;;
82628;SDS011;72298;49.640;20.652;2023-11-18T01:04:43;6.85;;;4.43;;
82628;SDS011;72298;49.640;20.652;2023-11-18T01:09:37;7.25;;;3.92;;
82628;SDS011;72298;49.640;20.652;2023-11-18T01:12:04;7.68;;;3.60;;
82628;SDS011;72298;49.640;20.652;2023-11-18T01:14:31;6.32;;;3.83;;
82628;SDS011;72298;49.640;20.652;2023-11-18T01:16:57;7.53;;;3.53;;
82628;SDS011;72298;49.640;20.652;2023-11-18T01:19:23;6.35;;;3.25;;
82628;SDS011;72298;49.640;20.652;2023-11-18T01:21:49;6.35;;;3.22;;
82628;SDS011;72298;49.640;20.652;2023-11-18T01:24:15;4.63;;;2.88;;
82628;SDS011;72298;49.640;20.652;2023-11-18T01:26:41;4.80;;;2.63;;
82628;SDS011;72298;49.640;20.652;2023-11-18T01:29:07;4.03;;;2.40;;
82628;SDS011;72298;49.640;20.652;2023-11-18T01:31:33;4.10;;;2.42;;
82628;SDS011;72298;49.640;20.652;2023-11-18T01:33:58;3.95;;;2.28;;
82628;SDS011;72298;49.640;20.652;2023-11-18T01:36:25;6.95;;;2.65;;
82628;SDS011;72298;49.640;20.652;2023-11-18T01:38:50;3.53;;;2.53;;
82628;SDS011;72298;49.640;20.652;2023-11-18T01:41:16;3.97;;;2.55;;
82628;SDS011;72298;49.640;20.652;2023-11-18T01:43:45;5.28;;;2.60;;
82628;SDS011;72298;49.640;20.652;2023-11-18T01:46:11;5.70;;;3.10;;
82628;SDS011;72298;49.640;20.652;2023-11-18T01:48:38;5.15;;;3.10;;
82628;SDS011;72298;49.640;20.652;2023-11-18T01:51:05;4.57;;;2.92;;
82628;SDS011;72298;49.640;20.652;2023-11-18T01:53:37;5.45;;;3.53;;
82628;SDS011;72298;49.640;20.652;2023-11-18T01:58:32;5.60;;;2.72;;
82628;SDS011;72298;49.640;20.652;2023-11-18T02:00:58;4.55;;;3.33;;
82628;SDS011;72298;49.640;20.652;2023-11-18T02:03:24;6.88;;;3.10;;
82628;SDS011;72298;49.640;20.652;2023-11-18T02:05:52;4.68;;;2.80;;
82628;SDS011;72298;49.640;20.652;2023-11-18T02:08:18;8.65;;;3.22;;
82628;SDS011;72298;49.640;20.652;2023-11-18T02:10:55;5.00;;;2.70;;
82628;SDS011;72298;49.640;20.652;2023-11-18T02:16:01;6.07;;;3.00;;
82628;SDS011;72298;49.640;20.652;2023-11-18T02:18:29;5.80;;;3.33;;
82628;SDS011;72298;49.640;20.652;2023-11-18T02:20:56;4.05;;;2.55;;
82628;SDS011;72298;49.640;20.652;2023-11-18T02:23:28;5.10;;;3.45;;
82628;SDS011;72298;49.640;20.652;2023-11-18T02:25:54;3.97;;;2.85;;
82628;SDS011;72298;49.640;20.652;2023-11-18T02:28:23;3.45;;;2.60;;
82628;SDS011;72298;49.640;20.652;2023-11-18T02:30:50;6.85;;;2.63;;
82628;SDS011;72298;49.640;20.652;2023-11-18T02:33:36;5.68;;;3.00;;
82628;SDS011;72298;49.640;20.652;2023-11-18T02:36:34;6.53;;;3.10;;
82628;SDS011;72298;49.640;20.652;2023-11-18T02:39:06;4.13;;;2.90;;
82628;SDS011;72298;49.640;20.652;2023-11-18T02:41:41;4.45;;;2.42;;
82628;SDS011;72298;49.640;20.652;2023-11-18T02:44:10;5.53;;;2.50;;
82628;SDS011;72298;49.640;20.652;2023-11-18T02:46:36;4.32;;;2.85;;
82628;SDS011;72298;49.640;20.652;2023-11-18T02:49:02;5.53;;;3.08;;
82628;SDS011;72298;49.640;20.652;2023-11-18T02:51:28;4.93;;;2.50;;
82628;SDS011;72298;49.640;20.652;2023-11-18T02:53:56;4.88;;;2.53;;
82628;SDS011;72298;49.640;20.652;2023-11-18T02:56:22;4.38;;;2.30;;
82628;SDS011;72298;49.640;20.652;2023-11-18T02:58:48;4.55;;;2.60;;
82628;SDS011;72298;49.640;20.652;2023-11-18T03:01:14;3.63;;;2.13;;
82628;SDS011;72298;49.640;20.652;2023-11-18T03:03:39;3.20;;;2.35;;
82628;SDS011;72298;49.640;20.652;2023-11-18T03:06:08;3.47;;;2.30;;
82628;SDS011;72298;49.640;20.652;2023-11-18T03:08:36;5.40;;;2.47;;
82628;SDS011;72298;49.640;20.652;2023-11-18T03:11:02;3.35;;;2.17;;
82628;SDS011;72298;49.640;20.652;2023-11-18T03:13:29;4.88;;;2.63;;
82628;SDS011;72298;49.640;20.652;2023-11-18T03:15:55;5.10;;;2.97;;
82628;SDS011;72298;49.640;20.652;2023-11-18T03:18:20;3.83;;;2.53;;
82628;SDS011;72298;49.640;20.652;2023-11-18T03:20:46;2.78;;;2.05;;
82628;SDS011;72298;49.640;20.652;2023-11-18T03:23:14;4.82;;;2.03;;
82628;SDS011;72298;49.640;20.652;2023-11-18T03:25:39;3.70;;;2.15;;
82628;SDS011;72298;49.640;20.652;2023-11-18T03:28:05;2.75;;;2.00;;
82628;SDS011;72298;49.640;20.652;2023-11-18T03:30:31;3.65;;;2.30;;
82628;SDS011;72298;49.640;20.652;2023-11-18T03:32:57;4.38;;;2.40;;
82628;SDS011;72298;49.640;20.652;2023-11-18T03:35:23;5.03;;;2.72;;
82628;SDS011;72298;49.640;20.652;2023-11-18T03:37:49;5.65;;;3.00;;
82628;SDS011;72298;49.640;20.652;2023-11-18T03:40:14;5.28;;;2.60;;
82628;SDS011;72298;49.640;20.652;2023-11-18T03:42:43;3.80;;;2.50;;
82628;SDS011;72298;49.640;20.652;2023-11-18T03:45:12;5.15;;;2.67;;
82628;SDS011;72298;49.640;20.652;2023-11-18T03:47:40;4.22;;;2.58;;
82628;SDS011;72298;49.640;20.652;2023-11-18T03:50:05;4.35;;;2.55;;
82628;SDS011;72298;49.640;20.652;2023-11-18T03:52:33;4.57;;;2.40;;
82628;SDS011;72298;49.640;20.652;2023-11-18T03:55:02;3.65;;;2.20;;
82628;SDS011;72298;49.640;20.652;2023-11-18T03:57:28;3.75;;;2.13;;
82628;SDS011;72298;49.640;20.652;2023-11-18T03:59:54;6.25;;;2.80;;
82628;SDS011;72298;49.640;20.652;2023-11-18T04:02:20;4.93;;;2.17;;
82628;SDS011;72298;49.640;20.652;2023-11-18T04:04:45;4.85;;;2.67;;
82628;SDS011;72298;49.640;20.652;2023-11-18T04:07:11;3.53;;;2.13;;
82628;SDS011;72298;49.640;20.652;2023-11-18T04:09:36;6.88;;;2.78;;
82628;SDS011;72298;49.640;20.652;2023-11-18T04:12:03;4.05;;;2.22;;
82628;SDS011;72298;49.640;20.652;2023-11-18T04:14:30;3.00;;;1.95;;
82628;SDS011;72298;49.640;20.652;2023-11-18T04:16:56;5.85;;;2.53;;
82628;SDS011;72298;49.640;20.652;2023-11-18T04:19:22;4.70;;;2.42;;
82628;SDS011;72298;49.640;20.652;2023-11-18T04:21:48;4.30;;;2.20;;
82628;SDS011;72298;49.640;20.652;2023-11-18T04:24:14;5.18;;;2.90;;
82628;SDS011;72298;49.640;20.652;2023-11-18T04:26:40;4.50;;;2.38;;
82628;SDS011;72298;49.640;20.652;2023-11-18T04:29:06;4.53;;;2.60;;
82628;SDS011;72298;49.640;20.652;2023-11-18T04:31:32;5.63;;;2.80;;
82628;SDS011;72298;49.640;20.652;2023-11-18T04:33:59;6.30;;;3.35;;
82628;SDS011;72298;49.640;20.652;2023-11-18T04:36:25;7.35;;;3.55;;
82628;SDS011;72298;49.640;20.652;2023-11-18T04:38:52;4.47;;;2.65;;
82628;SDS011;72298;49.640;20.652;2023-11-18T04:41:17;6.38;;;3.50;;
82628;SDS011;72298;49.640;20.652;2023-11-18T04:43:43;4.97;;;3.13;;
82628;SDS011;72298;49.640;20.652;2023-11-18T04:46:09;4.10;;;2.65;;
82628;SDS011;72298;49.640;20.652;2023-11-18T04:48:36;4.18;;;2.42;;
82628;SDS011;72298;49.640;20.652;2023-11-18T04:51:01;8.40;;;2.90;;
82628;SDS011;72298;49.640;20.652;2023-11-18T04:53:27;5.78;;;3.15;;
82628;SDS011;72298;49.640;20.652;2023-11-18T04:55:52;5.43;;;2.97;;
82628;SDS011;72298;49.640;20.652;2023-11-18T04:58:18;4.70;;;3.20;;
82628;SDS011;72298;49.640;20.652;2023-11-18T05:00:44;4.05;;;2.35;;
82628;SDS011;72298;49.640;20.652;2023-11-18T05:03:10;5.38;;;2.72;;
82628;SDS011;72298;49.640;20.652;2023-11-18T05:05:39;5.10;;;3.05;;
82628;SDS011;72298;49.640;20.652;2023-11-18T05:08:05;3.38;;;2.30;;
82628;SDS011;72298;49.640;20.652;2023-11-18T05:10:32;4.97;;;2.80;;
82628;SDS011;72298;49.640;20.652;2023-11-18T05:12:58;5.43;;;2.92;;
82628;SDS011;72298;49.640;20.652;2023-11-18T05:15:24;5.07;;;2.22;;
82628;SDS011;72298;49.640;20.652;2023-11-18T05:17:53;3.42;;;2.22;;
82628;SDS011;72298;49.640;20.652;2023-11-18T05:20:19;6.65;;;2.53;;
82628;SDS011;72298;49.640;20.652;2023-11-18T05:22:45;5.32;;;2.80;;
82628;SDS011;72298;49.640;20.652;2023-11-18T05:25:11;3.85;;;2.28;;
82628;SDS011;72298;49.640;20.652;2023-11-18T05:27:37;3.47;;;2.38;;
82628;SDS011;72298;49.640;20.652;2023-11-18T05:30:05;4.10;;;2.10;;
82628;SDS011;72298;49.640;20.652;2023-11-18T05:32:35;3.72;;;2.40;;
82628;SDS011;72298;49.640;20.652;2023-11-18T05:35:01;4.75;;;2.53;;
82628;SDS011;72298;49.640;20.652;2023-11-18T05:37:30;4.82;;;2.10;;
82628;SDS011;72298;49.640;20.652;2023-11-18T05:40:00;3.53;;;1.70;;
82628;SDS011;72298;49.640;20.652;2023-11-18T05:42:35;4.32;;;2.42;;
82628;SDS011;72298;49.640;20.652;2023-11-18T05:45:05;3.17;;;1.90;;
82628;SDS011;72298;49.640;20.652;2023-11-18T05:47:32;3.75;;;2.30;;
82628;SDS011;72298;49.640;20.652;2023-11-18T05:49:59;3.65;;;1.67;;
82628;SDS011;72298;49.640;20.652;2023-11-18T05:52:25;3.08;;;1.58;;
82628;SDS011;72298;49.640;20.652;2023-11-18T05:54:50;3.42;;;1.60;;
82628;SDS011;72298;49.640;20.652;2023-11-18T05:57:16;2.58;;;1.90;;
82628;SDS011;72298;49.640;20.652;2023-11-18T05:59:42;3.05;;;2.00;;
82628;SDS011;72298;49.640;20.652;2023-11-18T06:02:08;3.63;;;2.13;;
82628;SDS011;72298;49.640;20.652;2023-11-18T06:04:38;4.32;;;1.92;;
82628;SDS011;72298;49.640;20.652;2023-11-18T06:07:04;2.88;;;2.13;;
82628;SDS011;72298;49.640;20.652;2023-11-18T06:09:30;3.97;;;2.10;;
82628;SDS011;72298;49.640;20.652;2023-11-18T06:11:55;2.67;;;1.85;;
82628;SDS011;72298;49.640;20.652;2023-11-18T06:14:21;3.30;;;2.00;;
82628;SDS011;72298;49.640;20.652;2023-11-18T06:16:47;5.40;;;1.90;;
82628;SDS011;72298;49.640;20.652;2023-11-18T06:19:15;3.75;;;2.03;;
82628;SDS011;72298;49.640;20.652;2023-11-18T06:21:41;5.43;;;2.08;;
82628;SDS011;72298;49.640;20.652;2023-11-18T06:24:07;3.50;;;2.15;;
82628;SDS011;72298;49.640;20.652;2023-11-18T06:26:36;3.28;;;1.73;;
82628;SDS011;72298;49.640;20.652;2023-11-18T06:29:02;3.42;;;2.03;;
82628;SDS011;72298;49.640;20.652;2023-11-18T06:31:29;2.42;;;1.63;;
82628;SDS011;72298;49.640;20.652;2023-11-18T06:33:55;3.38;;;2.30;;
82628;SDS011;72298;49.640;20.652;2023-11-18T06:36:21;3.58;;;2.03;;
82628;SDS011;72298;49.640;20.652;2023-11-18T06:38:51;3.40;;;2.00;;
82628;SDS011;72298;49.640;20.652;2023-11-18T06:41:18;3.22;;;1.95;;
82628;SDS011;72298;49.640;20.652;2023-11-18T06:43:45;4.13;;;2.22;;
82628;SDS011;72298;49.640;20.652;2023-11-18T06:46:27;4.60;;;2.30;;
82628;SDS011;72298;49.640;20.652;2023-11-18T06:48:59;3.78;;;2.25;;
82628;SDS011;72298;49.640;20.652;2023-11-18T06:51:29;4.50;;;2.75;;
82628;SDS011;72298;49.640;20.652;2023-11-18T06:53:57;4.10;;;2.35;;
82628;SDS011;72298;49.640;20.652;2023-11-18T06:56:26;5.38;;;2.83;;
82628;SDS011;72298;49.640;20.652;2023-11-18T06:58:52;5.50;;;2.80;;
82628;SDS011;72298;49.640;20.652;2023-11-18T07:01:22;5.47;;;2.70;;
82628;SDS011;72298;49.640;20.652;2023-11-18T07:03:48;5.90;;;2.92;;
82628;SDS011;72298;49.640;20.652;2023-11-18T07:06:19;3.75;;;2.55;;
82628;SDS011;72298;49.640;20.652;2023-11-18T07:08:50;3.65;;;2.55;;
82628;SDS011;72298;49.640;20.652;2023-11-18T07:11:16;7.30;;;2.67;;
82628;SDS011;72298;49.640;20.652;2023-11-18T07:13:45;4.95;;;2.65;;
82628;SDS011;72298;49.640;20.652;2023-11-18T07:16:11;5.95;;;3.13;;
82628;SDS011;72298;49.640;20.652;2023-11-18T07:18:37;4.68;;;2.63;;
82628;SDS011;72298;49.640;20.652;2023-11-18T07:21:03;5.85;;;2.90;;
82628;SDS011;72298;49.640;20.652;2023-11-18T07:23:30;6.00;;;2.30;;
82628;SDS011;72298;49.640;20.652;2023-11-18T07:25:59;6.20;;;3.00;;
82628;SDS011;72298;49.640;20.652;2023-11-18T07:28:25;4.32;;;3.10;;
82628;SDS011;72298;49.640;20.652;2023-11-18T07:30:52;3.45;;;2.50;;
82628;SDS011;72298;49.640;20.652;2023-11-18T07:33:19;5.72;;;2.80;;
82628;SDS011;72298;49.640;20.652;2023-11-18T07:35:46;8.25;;;3.15;;
82628;SDS011;72298;49.640;20.652;2023-11-18T07:38:13;7.10;;;3.58;;
82628;SDS011;72298;49.640;20.652;2023-11-18T07:40:39;6.55;;;3.38;;
82628;SDS011;72298;49.640;20.652;2023-11-18T07:43:11;6.68;;;4.10;;
82628;SDS011;72298;49.640;20.652;2023-11-18T07:45:40;7.97;;;3.83;;
82628;SDS011;72298;49.640;20.652;2023-11-18T07:48:10;6.63;;;3.72;;
82628;SDS011;72298;49.640;20.652;2023-11-18T07:50:37;6.53;;;3.97;;
82628;SDS011;72298;49.640;20.652;2023-11-18T07:53:06;7.35;;;4.18;;
82628;SDS011;72298;49.640;20.652;2023-11-18T07:55:33;6.70;;;3.53;;
82628;SDS011;72298;49.640;20.652;2023-11-18T07:58:00;7.20;;;3.63;;
82628;SDS011;72298;49.640;20.652;2023-11-18T08:00:27;5.95;;;3.67;;
82628;SDS011;72298;49.640;20.652;2023-11-18T08:02:59;6.40;;;2.80;;
82628;SDS011;72298;49.640;20.652;2023-11-18T08:05:28;5.40;;;2.10;;
82628;SDS011;72298;49.640;20.652;2023-11-18T08:07:56;3.95;;;2.70;;
82628;SDS011;72298;49.640;20.652;2023-11-18T08:10:23;3.08;;;2.08;;
82628;SDS011;72298;49.640;20.652;2023-11-18T08:12:50;3.28;;;1.85;;
82628;SDS011;72298;49.640;20.652;2023-11-18T08:15:17;2.90;;;1.90;;
82628;SDS011;72298;49.640;20.652;2023-11-18T08:17:43;3.22;;;1.83;;
82628;SDS011;72298;49.640;20.652;2023-11-18T08:20:09;2.53;;;1.77;;
82628;SDS011;72298;49.640;20.652;2023-11-18T08:22:42;2.88;;;1.65;;
82628;SDS011;72298;49.640;20.652;2023-11-18T08:25:11;5.78;;;2.83;;
82628;SDS011;72298;49.640;20.652;2023-11-18T08:27:39;5.43;;;2.75;;
82628;SDS011;72298;49.640;20.652;2023-11-18T08:30:08;4.30;;;2.58;;
82628;SDS011;72298;49.640;20.652;2023-11-18T08:32:38;4.32;;;2.67;;
82628;SDS011;72298;49.640;20.652;2023-11-18T08:35:07;3.70;;;1.92;;
82628;SDS011;72298;49.640;20.652;2023-11-18T08:37:34;5.18;;;2.55;;
82628;SDS011;72298;49.640;20.652;2023-11-18T08:40:06;5.45;;;3.10;;
82628;SDS011;72298;49.640;20.652;2023-11-18T08:42:41;5.30;;;2.28;;
82628;SDS011;72298;49.640;20.652;2023-11-18T08:45:13;5.88;;;3.40;;
82628;SDS011;72298;49.640;20.652;2023-11-18T08:47:45;7.55;;;4.05;;
82628;SDS011;72298;49.640;20.652;2023-11-18T08:50:17;6.28;;;3.15;;
82628;SDS011;72298;49.640;20.652;2023-11-18T08:52:43;3.92;;;2.42;;
82628;SDS011;72298;49.640;20.652;2023-11-18T08:55:18;6.22;;;2.50;;
82628;SDS011;72298;49.640;20.652;2023-11-18T08:57:50;6.38;;;3.42;;
82628;SDS011;72298;49.640;20.652;2023-11-18T09:00:29;7.00;;;2.90;;
82628;SDS011;72298;49.640;20.652;2023-11-18T09:03:14;6.18;;;3.17;;
82628;SDS011;72298;49.640;20.652;2023-11-18T09:05:54;5.80;;;3.05;;
82628;SDS011;72298;49.640;20.652;2023-11-18T09:08:28;6.63;;;2.95;;
82628;SDS011;72298;49.640;20.652;2023-11-18T09:11:03;4.65;;;3.17;;
82628;SDS011;72298;49.640;20.652;2023-11-18T09:13:30;8.27;;;3.45;;
82628;SDS011;72298;49.640;20.652;2023-11-18T09:15:57;5.68;;;3.20;;
82628;SDS011;72298;49.640;20.652;2023-11-18T09:18:25;6.60;;;3.28;;
82628;SDS011;72298;49.640;20.652;2023-11-18T09:20:53;6.28;;;3.33;;
82628;SDS011;72298;49.640;20.652;2023-11-18T09:23:25;12.38;;;3.45;;
82628;SDS011;72298;49.640;20.652;2023-11-18T09:25:52;6.90;;;3.55;;
82628;SDS011;72298;49.640;20.652;2023-11-18T09:28:19;5.35;;;3.03;;
82628;SDS011;72298;49.640;20.652;2023-11-18T09:30:45;9.93;;;4.03;;
82628;SDS011;72298;49.640;20.652;2023-11-18T09:33:18;7.78;;;4.30;;
82628;SDS011;72298;49.640;20.652;2023-11-18T09:36:00;7.30;;;3.20;;
82628;SDS011;72298;49.640;20.652;2023-11-18T09:38:30;6.45;;;3.72;;
82628;SDS011;72298;49.640;20.652;2023-11-18T09:40:58;9.25;;;5.10;;
82628;SDS011;72298;49.640;20.652;2023-11-18T09:43:42;7.95;;;4.68;;
82628;SDS011;72298;49.640;20.652;2023-11-18T09:46:13;9.57;;;4.32;;
82628;SDS011;72298;49.640;20.652;2023-11-18T09:48:46;10.27;;;5.20;;
82628;SDS011;72298;49.640;20.652;2023-11-18T09:51:24;8.73;;;4.72;;
82628;SDS011;72298;49.640;20.652;2023-11-18T09:53:55;9.85;;;3.92;;
82628;SDS011;72298;49.640;20.652;2023-11-18T09:59:47;11.43;;;4.30;;
82628;SDS011;72298;49.640;20.652;2023-11-18T10:02:10;8.32;;;4.18;;
82628;SDS011;72298;49.640;20.652;2023-11-18T10:04:37;10.88;;;5.03;;
82628;SDS011;72298;49.640;20.652;2023-11-18T10:07:05;13.32;;;4.43;;
82628;SDS011;72298;49.640;20.652;2023-11-18T10:09:36;10.27;;;4.57;;
82628;SDS011;72298;49.640;20.652;2023-11-18T10:12:07;9.18;;;4.28;;
82628;SDS011;72298;49.640;20.652;2023-11-18T10:14:36;9.85;;;4.53;;
82628;SDS011;72298;49.640;20.652;2023-11-18T10:17:08;12.52;;;4.90;;
82628;SDS011;72298;49.640;20.652;2023-11-18T10:19:49;10.35;;;4.25;;
82628;SDS011;72298;49.640;20.652;2023-11-18T10:22:25;9.48;;;4.80;;
82628;SDS011;72298;49.640;20.652;2023-11-18T10:24:53;7.50;;;3.85;;
82628;SDS011;72298;49.640;20.652;2023-11-18T10:27:25;7.28;;;4.05;;
82628;SDS011;72298;49.640;20.652;2023-11-18T10:29:56;9.15;;;4.40;;
82628;SDS011;72298;49.640;20.652;2023-11-18T10:32:22;10.90;;;5.10;;
82628;SDS011;72298;49.640;20.652;2023-11-18T10:35:01;9.95;;;4.40;;
82628;SDS011;72298;49.640;20.652;2023-11-18T10:37:31;9.57;;;4.05;;
82628;SDS011;72298;49.640;20.652;2023-11-18T10:39:56;10.68;;;4.78;;
82628;SDS011;72298;49.640;20.652;2023-11-18T10:42:25;11.13;;;5.35;;
82628;SDS011;72298;49.640;20.652;2023-11-18T10:44:55;11.52;;;5.07;;
82628;SDS011;72298;49.640;20.652;2023-11-18T10:47:38;8.57;;;4.50;;
82628;SDS011;72298;49.640;20.652;2023-11-18T10:50:08;12.07;;;6.53;;
82628;SDS011;72298;49.640;20.652;2023-11-18T10:52:37;10.27;;;5.25;;
82628;SDS011;72298;49.640;20.652;2023-11-18T10:55:05;8.50;;;4.85;;
82628;SDS011;72298;49.640;20.652;2023-11-18T10:57:37;8.80;;;4.80;;
82628;SDS011;72298;49.640;20.652;2023-11-18T11:00:04;10.82;;;4.97;;
82628;SDS011;72298;49.640;20.652;2023-11-18T11:02:42;12.48;;;4.90;;
82628;SDS011;72298;49.640;20.652;2023-11-18T11:05:08;8.65;;;4.95;;
82628;SDS011;72298;49.640;20.652;2023-11-18T11:07:52;9.63;;;4.40;;
82628;SDS011;72298;49.640;20.652;2023-11-18T11:10:17;9.77;;;5.30;;
82628;SDS011;72298;49.640;20.652;2023-11-18T11:12:50;7.53;;;4.47;;
82628;SDS011;72298;49.640;20.652;2023-11-18T11:15:22;8.73;;;3.88;;
82628;SDS011;72298;49.640;20.652;2023-11-18T11:17:53;5.55;;;3.83;;
82628;SDS011;72298;49.640;20.652;2023-11-18T11:20:23;5.57;;;3.05;;
82628;SDS011;72298;49.640;20.652;2023-11-18T11:25:25;5.18;;;2.20;;
82628;SDS011;72298;49.640;20.652;2023-11-18T11:31:03;4.82;;;3.05;;
82628;SDS011;72298;49.640;20.652;2023-11-18T11:33:57;5.32;;;3.30;;
82628;SDS011;72298;49.640;20.652;2023-11-18T11:36:28;7.68;;;4.00;;
82628;SDS011;72298;49.640;20.652;2023-11-18T11:41:24;6.50;;;3.55;;
82628;SDS011;72298;49.640;20.652;2023-11-18T11:43:53;9.10;;;4.28;;
82628;SDS011;72298;49.640;20.652;2023-11-18T11:46:26;7.57;;;4.40;;
82628;SDS011;72298;49.640;20.652;2023-11-18T11:48:59;7.93;;;4.13;;
82628;SDS011;72298;49.640;20.652;2023-11-18T11:51:37;12.25;;;5.95;;
82628;SDS011;72298;49.640;20.652;2023-11-18T11:54:11;10.57;;;5.65;;
82628;SDS011;72298;49.640;20.652;2023-11-18T11:56:45;13.45;;;5.80;;
82628;SDS011;72298;49.640;20.652;2023-11-18T11:59:35;11.05;;;5.65;;
82628;SDS011;72298;49.640;20.652;2023-11-18T12:02:21;12.70;;;6.13;;
82628;SDS011;72298;49.640;20.652;2023-11-18T12:04:51;11.32;;;6.18;;
82628;SDS011;72298;49.640;20.652;2023-11-18T12:07:22;10.57;;;6.20;;
82628;SDS011;72298;49.640;20.652;2023-11-18T12:09:54;11.88;;;5.57;;
82628;SDS011;72298;49.640;20.652;2023-11-18T12:12:24;14.80;;;7.88;;
82628;SDS011;72298;49.640;20.652;2023-11-18T12:14:58;13.98;;;7.03;;
82628;SDS011;72298;49.640;20.652;2023-11-18T12:23:10;11.35;;;6.22;;
82628;SDS011;72298;49.640;20.652;2023-11-18T12:25:46;14.23;;;6.90;;
82628;SDS011;72298;49.640;20.652;2023-11-18T12:28:19;15.63;;;6.93;;
82628;SDS011;72298;49.640;20.652;2023-11-18T12:33:18;10.93;;;5.50;;
82628;SDS011;72298;49.640;20.652;2023-11-18T12:38:20;11.70;;;6.00;;
82628;SDS011;72298;49.640;20.652;2023-11-18T12:43:27;11.75;;;6.28;;
82628;SDS011;72298;49.640;20.652;2023-11-18T12:49:08;10.27;;;5.32;;
82628;SDS011;72298;49.640;20.652;2023-11-18T12:51:40;12.30;;;6.35;;
82628;SDS011;72298;49.640;20.652;2023-11-18T12:54:09;10.30;;;6.43;;
82628;SDS011;72298;49.640;20.652;2023-11-18T12:56:39;12.88;;;5.97;;
82628;SDS011;72298;49.640;20.652;2023-11-18T12:59:09;10.55;;;5.95;;
82628;SDS011;72298;49.640;20.652;2023-11-18T13:01:38;9.65;;;5.82;;
82628;SDS011;72298;49.640;20.652;2023-11-18T13:04:07;9.95;;;5.85;;
82628;SDS011;72298;49.640;20.652;2023-11-18T13:06:34;12.77;;;6.70;;
82628;SDS011;72298;49.640;20.652;2023-11-18T13:09:01;10.20;;;5.95;;
82628;SDS011;72298;49.640;20.652;2023-11-18T13:11:31;10.13;;;6.50;;
82628;SDS011;72298;49.640;20.652;2023-11-18T13:13:59;11.25;;;6.78;;
82628;SDS011;72298;49.640;20.652;2023-11-18T13:16:24;11.93;;;5.90;;
82628;SDS011;72298;49.640;20.652;2023-11-18T13:18:50;11.40;;;6.75;;
82628;SDS011;72298;49.640;20.652;2023-11-18T13:21:19;15.70;;;7.53;;
82628;SDS011;72298;49.640;20.652;2023-11-18T13:23:51;13.88;;;6.95;;
82628;SDS011;72298;49.640;20.652;2023-11-18T13:26:18;9.30;;;5.88;;
82628;SDS011;72298;49.640;20.652;2023-11-18T13:28:45;10.05;;;5.82;;
82628;SDS011;72298;49.640;20.652;2023-11-18T13:31:11;11.15;;;6.88;;
82628;SDS011;72298;49.640;20.652;2023-11-18T13:33:42;12.43;;;5.88;;
82628;SDS011;72298;49.640;20.652;2023-11-18T13:36:08;10.93;;;5.95;;
82628;SDS011;72298;49.640;20.652;2023-11-18T13:38:36;10.73;;;6.18;;
82628;SDS011;72298;49.640;20.652;2023-11-18T13:41:02;11.05;;;5.90;;
82628;SDS011;72298;49.640;20.652;2023-11-18T13:43:40;9.52;;;5.65;;
82628;SDS011;72298;49.640;20.652;2023-11-18T13:46:13;12.48;;;6.25;;
82628;SDS011;72298;49.640;20.652;2023-11-18T13:48:39;12.98;;;6.65;;
82628;SDS011;72298;49.640;20.652;2023-11-18T13:51:07;10.02;;;5.72;;
82628;SDS011;72298;49.640;20.652;2023-11-18T13:53:39;12.27;;;6.68;;
82628;SDS011;72298;49.640;20.652;2023-11-18T13:56:09;13.77;;;6.50;;
82628;SDS011;72298;49.640;20.652;2023-11-18T13:58:36;10.48;;;6.28;;
82628;SDS011;72298;49.640;20.652;2023-11-18T14:01:08;12.35;;;6.32;;
82628;SDS011;72298;49.640;20.652;2023-11-18T14:03:37;11.68;;;7.38;;
82628;SDS011;72298;49.640;20.652;2023-11-18T14:06:06;13.40;;;6.97;;
82628;SDS011;72298;49.640;20.652;2023-11-18T14:08:35;14.25;;;7.05;;
82628;SDS011;72298;49.640;20.652;2023-11-18T14:11:02;18.23;;;7.53;;
82628;SDS011;72298;49.640;20.652;2023-11-18T14:13:30;11.80;;;5.60;;
82628;SDS011;72298;49.640;20.652;2023-11-18T14:15:59;12.85;;;5.80;;
82628;SDS011;72298;49.640;20.652;2023-11-18T14:18:25;9.95;;;5.65;;
82628;SDS011;72298;49.640;20.652;2023-11-18T14:20:51;9.73;;;6.07;;
82628;SDS011;72298;49.640;20.652;2023-11-18T14:23:17;13.18;;;6.18;;
82628;SDS011;72298;49.640;20.652;2023-11-18T14:25:44;9.88;;;5.35;;
82628;SDS011;72298;49.640;20.652;2023-11-18T14:28:10;10.85;;;5.82;;
82628;SDS011;72298;49.640;20.652;2023-11-18T14:30:37;8.20;;;5.43;;
82628;SDS011;72298;49.640;20.652;2023-11-18T14:33:03;8.75;;;5.75;;
82628;SDS011;72298;49.640;20.652;2023-11-18T14:35:32;7.93;;;5.28;;
82628;SDS011;72298;49.640;20.652;2023-11-18T14:37:59;13.40;;;6.93;;
82628;SDS011;72298;49.640;20.652;2023-11-18T14:40:26;11.63;;;6.38;;
82628;SDS011;72298;49.640;20.652;2023-11-18T14:42:53;11.85;;;6.18;;
82628;SDS011;72298;49.640;20.652;2023-11-18T14:45:19;13.07;;;6.45;;
82628;SDS011;72298;49.640;20.652;2023-11-18T14:47:45;12.13;;;6.28;;
82628;SDS011;72298;49.640;20.652;2023-11-18T14:50:22;11.57;;;6.55;;
82628;SDS011;72298;49.640;20.652;2023-11-18T14:52:49;11.02;;;6.57;;
82628;SDS011;72298;49.640;20.652;2023-11-18T14:55:17;14.95;;;6.43;;
82628;SDS011;72298;49.640;20.652;2023-11-18T14:57:46;10.50;;;6.47;;
82628;SDS011;72298;49.640;20.652;2023-11-18T15:00:12;10.68;;;6.32;;
82628;SDS011;72298;49.640;20.652;2023-11-18T15:02:51;11.13;;;6.43;;
82628;SDS011;72298;49.640;20.652;2023-11-18T15:05:17;10.38;;;5.57;;
82628;SDS011;72298;49.640;20.652;2023-11-18T15:07:44;13.43;;;6.38;;
82628;SDS011;72298;49.640;20.652;2023-11-18T15:10:10;13.77;;;6.53;;
82628;SDS011;72298;49.640;20.652;2023-11-18T15:12:38;12.82;;;6.20;;
82628;SDS011;72298;49.640;20.652;2023-11-18T15:15:06;13.07;;;6.40;;